sensor_id;sensor_type;location;lat;lon;timestamp;temperature;humidity
1578;DHT22;57623;53.608;10.004;2022-09-03T00:02:31;16.80;99.90
1578;DHT22;57623;53.608;10.004;2022-09-03T00:05:24;16.80;99.90
1578;DHT22;57623;53.608;10.004;2022-09-03T00:08:15;16.70;99.90
1578;DHT22;57623;53.608;10.004;2022-09-03T00:11:11;16.70;99.90
1578;DHT22;57623;53.608;10.004;2022-09-03T00:14:04;16.60;99.90
1578;DHT22;57623;53.608;10.004;2022-09-03T00:16:57;16.60;99.90
1578;DHT22;57623;53.608;10.004;2022-09-03T00:19:53;16.60;99.90
1578;DHT22;57623;53.608;10.004;2022-09-03T00:22:45;16.60;99.90
1578;DHT22;57623;53.608;10.004;2022-09-03T00:25:38;16.60;99.90
1578;DHT22;57623;53.608;10.004;2022-09-03T00:28:31;16.50;99.90
1578;DHT22;57623;53.608;10.004;2022-09-03T00:31:24;16.50;99.90
1578;DHT22;57623;53.608;10.004;2022-09-03T00:34:19;16.50;99.90
1578;DHT22;57623;53.608;10.004;2022-09-03T00:37:10;16.50;99.90
1578;DHT22;57623;53.608;10.004;2022-09-03T00:40:02;16.40;99.90
1578;DHT22;57623;53.608;10.004;2022-09-03T00:42:58;16.40;99.90
1578;DHT22;57623;53.608;10.004;2022-09-03T00:45:55;16.40;99.90
1578;DHT22;57623;53.608;10.004;2022-09-03T00:49:09;16.30;99.90
1578;DHT22;57623;53.608;10.004;2022-09-03T00:52:06;16.30;99.90
1578;DHT22;57623;53.608;10.004;2022-09-03T00:55:04;16.30;99.90
1578;DHT22;57623;53.608;10.004;2022-09-03T00:58:10;16.20;99.90
1578;DHT22;57623;53.608;10.004;2022-09-03T01:01:06;16.20;99.90
1578;DHT22;57623;53.608;10.004;2022-09-03T01:04:05;16.20;99.90
1578;DHT22;57623;53.608;10.004;2022-09-03T01:07:01;16.10;99.90
1578;DHT22;57623;53.608;10.004;2022-09-03T01:09:59;16.10;99.90
1578;DHT22;57623;53.608;10.004;2022-09-03T01:12:59;16.10;99.90
1578;DHT22;57623;53.608;10.004;2022-09-03T01:15:56;16.10;99.90
1578;DHT22;57623;53.608;10.004;2022-09-03T01:18:52;16.00;99.90
1578;DHT22;57623;53.608;10.004;2022-09-03T01:21:58;16.00;99.90
1578;DHT22;57623;53.608;10.004;2022-09-03T01:25:13;16.00;99.90
1578;DHT22;57623;53.608;10.004;2022-09-03T01:28:29;16.00;99.90
1578;DHT22;57623;53.608;10.004;2022-09-03T01:31:25;16.00;99.90
1578;DHT22;57623;53.608;10.004;2022-09-03T01:34:24;15.90;99.90
1578;DHT22;57623;53.608;10.004;2022-09-03T01:37:24;15.90;99.90
1578;DHT22;57623;53.608;10.004;2022-09-03T01:40:20;15.90;99.90
1578;DHT22;57623;53.608;10.004;2022-09-03T01:43:22;15.90;99.90
1578;DHT22;57623;53.608;10.004;2022-09-03T01:46:24;15.80;99.90
1578;DHT22;57623;53.608;10.004;2022-09-03T01:49:19;15.90;99.90
1578;DHT22;57623;53.608;10.004;2022-09-03T01:52:12;15.80;99.90
1578;DHT22;57623;53.608;10.004;2022-09-03T01:55:08;15.80;99.90
1578;DHT22;57623;53.608;10.004;2022-09-03T01:58:05;15.70;99.90
1578;DHT22;57623;53.608;10.004;2022-09-03T02:01:01;15.70;99.90
1578;DHT22;57623;53.608;10.004;2022-09-03T02:03:51;15.70;99.90
1578;DHT22;57623;53.608;10.004;2022-09-03T02:06:46;15.70;99.90
1578;DHT22;57623;53.608;10.004;2022-09-03T02:09:38;15.70;99.90
1578;DHT22;57623;53.608;10.004;2022-09-03T02:12:29;15.70;99.90
1578;DHT22;57623;53.608;10.004;2022-09-03T02:15:20;15.60;99.90
1578;DHT22;57623;53.608;10.004;2022-09-03T02:18:15;15.60;99.90
1578;DHT22;57623;53.608;10.004;2022-09-03T02:21:04;15.60;99.90
1578;DHT22;57623;53.608;10.004;2022-09-03T02:23:53;15.60;99.90
1578;DHT22;57623;53.608;10.004;2022-09-03T02:26:42;15.50;99.90
1578;DHT22;57623;53.608;10.004;2022-09-03T02:29:31;15.50;99.90
1578;DHT22;57623;53.608;10.004;2022-09-03T02:32:20;15.50;99.90
1578;DHT22;57623;53.608;10.004;2022-09-03T02:35:10;15.50;99.90
1578;DHT22;57623;53.608;10.004;2022-09-03T02:38:08;15.50;99.90
1578;DHT22;57623;53.608;10.004;2022-09-03T02:40:57;15.50;99.90
1578;DHT22;57623;53.608;10.004;2022-09-03T02:43:49;15.40;99.90
1578;DHT22;57623;53.608;10.004;2022-09-03T02:46:41;15.40;99.90
1578;DHT22;57623;53.608;10.004;2022-09-03T02:49:31;15.40;99.90
1578;DHT22;57623;53.608;10.004;2022-09-03T02:52:20;15.30;99.90
1578;DHT22;57623;53.608;10.004;2022-09-03T02:55:09;15.30;99.90
1578;DHT22;57623;53.608;10.004;2022-09-03T02:57:57;15.30;99.90
1578;DHT22;57623;53.608;10.004;2022-09-03T03:00:46;15.30;99.90
1578;DHT22;57623;53.608;10.004;2022-09-03T03:03:35;15.20;99.90
1578;DHT22;57623;53.608;10.004;2022-09-03T03:06:23;15.20;99.90
1578;DHT22;57623;53.608;10.004;2022-09-03T03:09:13;15.20;99.90
1578;DHT22;57623;53.608;10.004;2022-09-03T03:12:02;15.20;99.90
1578;DHT22;57623;53.608;10.004;2022-09-03T03:14:50;15.10;99.90
1578;DHT22;57623;53.608;10.004;2022-09-03T03:17:39;15.10;99.90
1578;DHT22;57623;53.608;10.004;2022-09-03T03:20:27;15.00;99.90
1578;DHT22;57623;53.608;10.004;2022-09-03T03:23:16;15.00;99.90
1578;DHT22;57623;53.608;10.004;2022-09-03T03:26:07;15.00;99.90
1578;DHT22;57623;53.608;10.004;2022-09-03T03:28:57;15.00;99.90
1578;DHT22;57623;53.608;10.004;2022-09-03T03:31:46;15.00;99.90
1578;DHT22;57623;53.608;10.004;2022-09-03T03:34:34;15.00;99.90
1578;DHT22;57623;53.608;10.004;2022-09-03T03:37:23;15.00;99.90
1578;DHT22;57623;53.608;10.004;2022-09-03T03:40:12;15.00;99.90
1578;DHT22;57623;53.608;10.004;2022-09-03T03:43:02;14.90;99.90
1578;DHT22;57623;53.608;10.004;2022-09-03T03:45:55;14.90;99.90
1578;DHT22;57623;53.608;10.004;2022-09-03T03:48:46;14.90;99.90
1578;DHT22;57623;53.608;10.004;2022-09-03T03:51:37;14.90;99.90
1578;DHT22;57623;53.608;10.004;2022-09-03T03:54:26;14.90;99.90
1578;DHT22;57623;53.608;10.004;2022-09-03T03:57:15;14.80;99.90
1578;DHT22;57623;53.608;10.004;2022-09-03T04:00:05;14.90;99.90
1578;DHT22;57623;53.608;10.004;2022-09-03T04:02:54;14.80;99.90
1578;DHT22;57623;53.608;10.004;2022-09-03T04:05:42;14.80;99.90
1578;DHT22;57623;53.608;10.004;2022-09-03T04:08:35;14.80;99.90
1578;DHT22;57623;53.608;10.004;2022-09-03T04:11:24;14.80;99.90
1578;DHT22;57623;53.608;10.004;2022-09-03T04:14:13;14.80;99.90
1578;DHT22;57623;53.608;10.004;2022-09-03T04:17:03;14.80;99.90
1578;DHT22;57623;53.608;10.004;2022-09-03T04:19:51;14.80;99.90
1578;DHT22;57623;53.608;10.004;2022-09-03T04:22:39;14.80;99.90
1578;DHT22;57623;53.608;10.004;2022-09-03T04:25:27;14.70;99.90
1578;DHT22;57623;53.608;10.004;2022-09-03T04:28:16;14.70;99.90
1578;DHT22;57623;53.608;10.004;2022-09-03T04:31:05;14.80;99.90
1578;DHT22;57623;53.608;10.004;2022-09-03T04:33:56;14.60;99.90
1578;DHT22;57623;53.608;10.004;2022-09-03T04:36:47;14.60;99.90
1578;DHT22;57623;53.608;10.004;2022-09-03T04:39:38;14.60;99.90
1578;DHT22;57623;53.608;10.004;2022-09-03T04:42:27;14.60;99.90
1578;DHT22;57623;53.608;10.004;2022-09-03T04:45:15;14.60;99.90
1578;DHT22;57623;53.608;10.004;2022-09-03T04:48:04;14.50;99.90
1578;DHT22;57623;53.608;10.004;2022-09-03T04:51:02;14.50;99.90
1578;DHT22;57623;53.608;10.004;2022-09-03T04:53:53;14.50;99.90
1578;DHT22;57623;53.608;10.004;2022-09-03T04:56:42;14.50;99.90
1578;DHT22;57623;53.608;10.004;2022-09-03T04:59:30;14.50;99.90
1578;DHT22;57623;53.608;10.004;2022-09-03T05:02:18;14.50;99.90
1578;DHT22;57623;53.608;10.004;2022-09-03T05:05:07;14.50;99.90
1578;DHT22;57623;53.608;10.004;2022-09-03T05:07:58;14.50;99.90
1578;DHT22;57623;53.608;10.004;2022-09-03T05:10:47;14.50;99.90
1578;DHT22;57623;53.608;10.004;2022-09-03T05:13:41;14.50;99.90
1578;DHT22;57623;53.608;10.004;2022-09-03T05:16:29;14.50;99.90
1578;DHT22;57623;53.608;10.004;2022-09-03T05:19:17;14.50;99.90
1578;DHT22;57623;53.608;10.004;2022-09-03T05:22:08;14.50;99.90
1578;DHT22;57623;53.608;10.004;2022-09-03T05:24:57;14.50;99.90
1578;DHT22;57623;53.608;10.004;2022-09-03T05:27:45;14.50;99.90
1578;DHT22;57623;53.608;10.004;2022-09-03T05:30:34;14.50;99.90
1578;DHT22;57623;53.608;10.004;2022-09-03T05:33:22;14.50;99.90
1578;DHT22;57623;53.608;10.004;2022-09-03T05:36:12;14.50;99.90
1578;DHT22;57623;53.608;10.004;2022-09-03T05:39:02;14.60;99.90
1578;DHT22;57623;53.608;10.004;2022-09-03T05:41:52;14.60;99.90
1578;DHT22;57623;53.608;10.004;2022-09-03T05:44:40;14.60;99.90
1578;DHT22;57623;53.608;10.004;2022-09-03T05:47:29;14.60;99.90
1578;DHT22;57623;53.608;10.004;2022-09-03T05:50:17;14.60;99.90
1578;DHT22;57623;53.608;10.004;2022-09-03T05:53:06;14.60;99.90
1578;DHT22;57623;53.608;10.004;2022-09-03T05:55:54;14.60;99.90
1578;DHT22;57623;53.608;10.004;2022-09-03T05:58:46;14.60;99.90
1578;DHT22;57623;53.608;10.004;2022-09-03T06:01:36;14.60;99.90
1578;DHT22;57623;53.608;10.004;2022-09-03T06:04:25;14.70;99.90
1578;DHT22;57623;53.608;10.004;2022-09-03T06:07:13;14.70;99.90
1578;DHT22;57623;53.608;10.004;2022-09-03T06:10:02;14.70;99.90
1578;DHT22;57623;53.608;10.004;2022-09-03T06:12:51;14.70;99.90
1578;DHT22;57623;53.608;10.004;2022-09-03T06:15:40;14.70;99.90
1578;DHT22;57623;53.608;10.004;2022-09-03T06:18:29;14.80;99.90
1578;DHT22;57623;53.608;10.004;2022-09-03T06:21:18;14.90;99.90
1578;DHT22;57623;53.608;10.004;2022-09-03T06:24:07;14.90;99.90
1578;DHT22;57623;53.608;10.004;2022-09-03T06:26:56;14.90;99.90
1578;DHT22;57623;53.608;10.004;2022-09-03T06:29:44;15.00;99.90
1578;DHT22;57623;53.608;10.004;2022-09-03T06:32:34;15.00;99.90
1578;DHT22;57623;53.608;10.004;2022-09-03T06:35:30;15.00;99.90
1578;DHT22;57623;53.608;10.004;2022-09-03T06:38:30;15.10;99.90
1578;DHT22;57623;53.608;10.004;2022-09-03T06:41:23;15.10;99.90
1578;DHT22;57623;53.608;10.004;2022-09-03T06:44:12;15.20;99.90
1578;DHT22;57623;53.608;10.004;2022-09-03T06:47:01;15.20;99.90
1578;DHT22;57623;53.608;10.004;2022-09-03T06:49:50;15.20;99.90
1578;DHT22;57623;53.608;10.004;2022-09-03T06:52:38;15.30;99.90
1578;DHT22;57623;53.608;10.004;2022-09-03T06:55:27;15.30;99.90
1578;DHT22;57623;53.608;10.004;2022-09-03T06:58:15;15.30;99.90
1578;DHT22;57623;53.608;10.004;2022-09-03T07:01:05;15.40;99.90
1578;DHT22;57623;53.608;10.004;2022-09-03T07:03:55;15.40;99.90
1578;DHT22;57623;53.608;10.004;2022-09-03T07:06:45;15.50;99.90
1578;DHT22;57623;53.608;10.004;2022-09-03T07:09:33;15.50;99.90
1578;DHT22;57623;53.608;10.004;2022-09-03T07:12:24;15.60;99.90
1578;DHT22;57623;53.608;10.004;2022-09-03T07:15:12;15.60;99.90
1578;DHT22;57623;53.608;10.004;2022-09-03T07:18:01;15.70;99.90
1578;DHT22;57623;53.608;10.004;2022-09-03T07:20:49;15.70;99.90
1578;DHT22;57623;53.608;10.004;2022-09-03T07:23:39;15.80;99.90
1578;DHT22;57623;53.608;10.004;2022-09-03T07:26:30;15.80;99.90
1578;DHT22;57623;53.608;10.004;2022-09-03T07:29:19;15.90;99.90
1578;DHT22;57623;53.608;10.004;2022-09-03T07:32:07;16.00;99.90
1578;DHT22;57623;53.608;10.004;2022-09-03T07:34:56;16.00;99.90
1578;DHT22;57623;53.608;10.004;2022-09-03T07:37:44;16.10;99.90
1578;DHT22;57623;53.608;10.004;2022-09-03T07:40:34;16.20;99.90
1578;DHT22;57623;53.608;10.004;2022-09-03T07:43:22;16.20;99.90
1578;DHT22;57623;53.608;10.004;2022-09-03T07:46:10;16.20;99.90
1578;DHT22;57623;53.608;10.004;2022-09-03T07:49:00;16.30;99.90
1578;DHT22;57623;53.608;10.004;2022-09-03T07:51:49;16.40;99.90
1578;DHT22;57623;53.608;10.004;2022-09-03T07:54:39;16.50;99.90
1578;DHT22;57623;53.608;10.004;2022-09-03T07:57:29;16.60;99.90
1578;DHT22;57623;53.608;10.004;2022-09-03T08:00:18;16.70;99.90
1578;DHT22;57623;53.608;10.004;2022-09-03T08:03:06;16.80;99.90
1578;DHT22;57623;53.608;10.004;2022-09-03T08:06:00;16.80;99.90
1578;DHT22;57623;53.608;10.004;2022-09-03T08:08:53;16.90;99.90
1578;DHT22;57623;53.608;10.004;2022-09-03T08:11:49;17.00;99.90
1578;DHT22;57623;53.608;10.004;2022-09-03T08:14:39;17.10;99.90
1578;DHT22;57623;53.608;10.004;2022-09-03T08:17:27;17.20;99.90
1578;DHT22;57623;53.608;10.004;2022-09-03T08:20:16;17.30;99.90
1578;DHT22;57623;53.608;10.004;2022-09-03T08:23:04;17.40;99.90
1578;DHT22;57623;53.608;10.004;2022-09-03T08:25:57;17.50;99.90
1578;DHT22;57623;53.608;10.004;2022-09-03T08:28:46;17.60;99.90
1578;DHT22;57623;53.608;10.004;2022-09-03T08:31:36;17.70;99.90
1578;DHT22;57623;53.608;10.004;2022-09-03T08:34:24;17.80;99.90
1578;DHT22;57623;53.608;10.004;2022-09-03T08:37:13;17.90;99.90
1578;DHT22;57623;53.608;10.004;2022-09-03T08:40:01;18.00;99.90
1578;DHT22;57623;53.608;10.004;2022-09-03T08:42:58;18.10;99.90
1578;DHT22;57623;53.608;10.004;2022-09-03T08:45:52;18.20;99.90
1578;DHT22;57623;53.608;10.004;2022-09-03T08:48:42;18.30;99.90
1578;DHT22;57623;53.608;10.004;2022-09-03T08:51:33;18.40;99.90
1578;DHT22;57623;53.608;10.004;2022-09-03T08:54:29;18.50;99.90
1578;DHT22;57623;53.608;10.004;2022-09-03T08:57:19;18.70;99.90
1578;DHT22;57623;53.608;10.004;2022-09-03T09:00:08;18.80;99.90
1578;DHT22;57623;53.608;10.004;2022-09-03T09:03:12;18.80;99.90
1578;DHT22;57623;53.608;10.004;2022-09-03T09:06:20;18.90;99.90
1578;DHT22;57623;53.608;10.004;2022-09-03T09:09:19;19.00;99.90
1578;DHT22;57623;53.608;10.004;2022-09-03T09:12:19;19.10;99.90
1578;DHT22;57623;53.608;10.004;2022-09-03T09:15:13;19.20;99.90
1578;DHT22;57623;53.608;10.004;2022-09-03T09:18:10;19.30;99.90
1578;DHT22;57623;53.608;10.004;2022-09-03T09:21:08;19.40;99.90
1578;DHT22;57623;53.608;10.004;2022-09-03T09:24:12;19.50;99.90
1578;DHT22;57623;53.608;10.004;2022-09-03T09:27:13;19.50;99.90
1578;DHT22;57623;53.608;10.004;2022-09-03T09:30:04;19.60;99.90
1578;DHT22;57623;53.608;10.004;2022-09-03T09:32:52;19.70;99.90
1578;DHT22;57623;53.608;10.004;2022-09-03T09:35:43;19.80;99.90
1578;DHT22;57623;53.608;10.004;2022-09-03T09:38:35;19.90;99.90
1578;DHT22;57623;53.608;10.004;2022-09-03T09:41:23;19.90;99.90
1578;DHT22;57623;53.608;10.004;2022-09-03T09:44:19;20.00;99.90
1578;DHT22;57623;53.608;10.004;2022-09-03T09:47:12;20.10;99.90
1578;DHT22;57623;53.608;10.004;2022-09-03T09:50:02;20.20;99.90
1578;DHT22;57623;53.608;10.004;2022-09-03T09:52:59;20.20;99.90
1578;DHT22;57623;53.608;10.004;2022-09-03T09:55:52;20.30;99.90
1578;DHT22;57623;53.608;10.004;2022-09-03T09:58:40;20.50;99.90
1578;DHT22;57623;53.608;10.004;2022-09-03T10:01:29;20.50;99.90
1578;DHT22;57623;53.608;10.004;2022-09-03T10:04:22;20.60;99.90
1578;DHT22;57623;53.608;10.004;2022-09-03T10:07:25;20.70;99.90
1578;DHT22;57623;53.608;10.004;2022-09-03T10:10:16;20.80;99.90
1578;DHT22;57623;53.608;10.004;2022-09-03T10:13:10;20.80;99.90
1578;DHT22;57623;53.608;10.004;2022-09-03T10:16:03;20.90;99.90
1578;DHT22;57623;53.608;10.004;2022-09-03T10:19:02;20.90;99.90
1578;DHT22;57623;53.608;10.004;2022-09-03T10:21:57;20.90;99.90
1578;DHT22;57623;53.608;10.004;2022-09-03T10:24:55;20.90;99.90
1578;DHT22;57623;53.608;10.004;2022-09-03T10:27:45;20.90;99.90
1578;DHT22;57623;53.608;10.004;2022-09-03T10:30:47;20.80;99.90
1578;DHT22;57623;53.608;10.004;2022-09-03T10:33:45;20.80;99.90
1578;DHT22;57623;53.608;10.004;2022-09-03T10:36:39;20.80;99.90
1578;DHT22;57623;53.608;10.004;2022-09-03T10:39:40;20.80;99.90
1578;DHT22;57623;53.608;10.004;2022-09-03T10:42:43;20.90;99.90
1578;DHT22;57623;53.608;10.004;2022-09-03T10:45:38;20.90;99.90
1578;DHT22;57623;53.608;10.004;2022-09-03T10:48:40;21.00;99.90
1578;DHT22;57623;53.608;10.004;2022-09-03T10:51:35;21.00;99.90
1578;DHT22;57623;53.608;10.004;2022-09-03T10:54:33;21.10;99.90
1578;DHT22;57623;53.608;10.004;2022-09-03T10:57:30;21.20;99.90
1578;DHT22;57623;53.608;10.004;2022-09-03T11:00:23;21.30;99.90
1578;DHT22;57623;53.608;10.004;2022-09-03T11:03:28;21.40;99.90
1578;DHT22;57623;53.608;10.004;2022-09-03T11:06:22;21.50;99.90
1578;DHT22;57623;53.608;10.004;2022-09-03T11:09:15;21.50;99.90
1578;DHT22;57623;53.608;10.004;2022-09-03T11:12:09;21.60;99.90
1578;DHT22;57623;53.608;10.004;2022-09-03T11:15:01;21.60;99.90
1578;DHT22;57623;53.608;10.004;2022-09-03T11:17:54;21.60;99.90
1578;DHT22;57623;53.608;10.004;2022-09-03T11:20:47;21.60;99.90
1578;DHT22;57623;53.608;10.004;2022-09-03T11:23:40;21.70;99.90
1578;DHT22;57623;53.608;10.004;2022-09-03T11:26:30;21.80;99.90
1578;DHT22;57623;53.608;10.004;2022-09-03T11:29:25;21.90;99.90
1578;DHT22;57623;53.608;10.004;2022-09-03T11:32:19;22.20;99.90
1578;DHT22;57623;53.608;10.004;2022-09-03T11:35:14;22.30;99.90
1578;DHT22;57623;53.608;10.004;2022-09-03T11:38:08;22.40;99.90
1578;DHT22;57623;53.608;10.004;2022-09-03T11:41:11;22.40;99.90
1578;DHT22;57623;53.608;10.004;2022-09-03T11:44:15;22.30;99.90
1578;DHT22;57623;53.608;10.004;2022-09-03T11:47:14;22.30;99.90
1578;DHT22;57623;53.608;10.004;2022-09-03T11:50:07;22.20;99.90
1578;DHT22;57623;53.608;10.004;2022-09-03T11:53:08;22.20;99.90
1578;DHT22;57623;53.608;10.004;2022-09-03T11:55:59;22.40;99.90
1578;DHT22;57623;53.608;10.004;2022-09-03T11:58:59;22.60;99.90
1578;DHT22;57623;53.608;10.004;2022-09-03T12:01:51;22.80;99.90
1578;DHT22;57623;53.608;10.004;2022-09-03T12:04:45;22.90;99.90
1578;DHT22;57623;53.608;10.004;2022-09-03T12:07:43;23.10;99.90
1578;DHT22;57623;53.608;10.004;2022-09-03T12:10:43;23.20;99.90
1578;DHT22;57623;53.608;10.004;2022-09-03T12:13:43;23.40;99.90
1578;DHT22;57623;53.608;10.004;2022-09-03T12:19:51;23.70;99.90
1578;DHT22;57623;53.608;10.004;2022-09-03T12:22:40;23.90;99.90
1578;DHT22;57623;53.608;10.004;2022-09-03T12:25:29;24.00;99.90
1578;DHT22;57623;53.608;10.004;2022-09-03T12:28:21;24.10;99.90
1578;DHT22;57623;53.608;10.004;2022-09-03T12:31:15;24.10;99.90
1578;DHT22;57623;53.608;10.004;2022-09-03T12:34:14;24.20;99.90
1578;DHT22;57623;53.608;10.004;2022-09-03T12:37:03;24.30;99.90
1578;DHT22;57623;53.608;10.004;2022-09-03T12:40:04;24.40;99.90
1578;DHT22;57623;53.608;10.004;2022-09-03T12:42:55;24.60;98.40
1578;DHT22;57623;53.608;10.004;2022-09-03T12:46:22;24.70;97.60
1578;DHT22;57623;53.608;10.004;2022-09-03T12:49:19;24.80;97.30
1578;DHT22;57623;53.608;10.004;2022-09-03T12:52:19;24.80;96.60
1578;DHT22;57623;53.608;10.004;2022-09-03T12:55:17;25.00;95.50
1578;DHT22;57623;53.608;10.004;2022-09-03T12:58:11;25.10;94.90
1578;DHT22;57623;53.608;10.004;2022-09-03T13:01:06;25.20;95.30
1578;DHT22;57623;53.608;10.004;2022-09-03T13:04:02;25.40;94.90
1578;DHT22;57623;53.608;10.004;2022-09-03T13:07:00;25.50;94.60
1578;DHT22;57623;53.608;10.004;2022-09-03T13:09:49;25.60;93.70
1578;DHT22;57623;53.608;10.004;2022-09-03T13:12:43;25.60;93.30
1578;DHT22;57623;53.608;10.004;2022-09-03T13:15:39;25.80;93.80
1578;DHT22;57623;53.608;10.004;2022-09-03T13:18:30;25.90;92.20
1578;DHT22;57623;53.608;10.004;2022-09-03T13:21:36;26.00;91.40
1578;DHT22;57623;53.608;10.004;2022-09-03T13:24:56;26.10;92.10
1578;DHT22;57623;53.608;10.004;2022-09-03T13:28:02;26.20;92.00
1578;DHT22;57623;53.608;10.004;2022-09-03T13:30:58;26.20;91.30
1578;DHT22;57623;53.608;10.004;2022-09-03T13:33:50;26.20;91.10
1578;DHT22;57623;53.608;10.004;2022-09-03T13:36:45;26.20;90.50
1578;DHT22;57623;53.608;10.004;2022-09-03T13:39:40;26.30;90.60
1578;DHT22;57623;53.608;10.004;2022-09-03T13:42:35;26.80;90.20
1578;DHT22;57623;53.608;10.004;2022-09-03T13:45:29;27.10;89.20
1578;DHT22;57623;53.608;10.004;2022-09-03T13:48:20;27.40;87.30
1578;DHT22;57623;53.608;10.004;2022-09-03T13:51:31;27.60;89.10
1578;DHT22;57623;53.608;10.004;2022-09-03T13:54:28;28.10;87.30
1578;DHT22;57623;53.608;10.004;2022-09-03T13:57:44;28.20;83.70
1578;DHT22;57623;53.608;10.004;2022-09-03T14:00:39;29.50;81.30
1578;DHT22;57623;53.608;10.004;2022-09-03T14:03:32;30.50;75.70
1578;DHT22;57623;53.608;10.004;2022-09-03T14:06:36;30.30;73.20
1578;DHT22;57623;53.608;10.004;2022-09-03T14:09:37;30.00;75.40
1578;DHT22;57623;53.608;10.004;2022-09-03T14:12:38;29.60;76.00
1578;DHT22;57623;53.608;10.004;2022-09-03T14:15:34;29.20;75.20
1578;DHT22;57623;53.608;10.004;2022-09-03T14:18:38;28.80;75.60
1578;DHT22;57623;53.608;10.004;2022-09-03T14:21:29;28.60;74.80
1578;DHT22;57623;53.608;10.004;2022-09-03T14:24:22;28.50;74.40
1578;DHT22;57623;53.608;10.004;2022-09-03T14:27:22;28.60;74.70
1578;DHT22;57623;53.608;10.004;2022-09-03T14:30:18;28.50;72.90
1578;DHT22;57623;53.608;10.004;2022-09-03T14:33:18;28.40;73.30
1578;DHT22;57623;53.608;10.004;2022-09-03T14:36:17;29.20;72.10
1578;DHT22;57623;53.608;10.004;2022-09-03T14:39:25;30.20;70.80
1578;DHT22;57623;53.608;10.004;2022-09-03T14:52:18;34.90;57.80
1578;DHT22;57623;53.608;10.004;2022-09-03T14:55:28;34.00;57.80
1578;DHT22;57623;53.608;10.004;2022-09-03T14:58:27;32.90;57.80
1578;DHT22;57623;53.608;10.004;2022-09-03T15:07:32;31.90;59.20
1578;DHT22;57623;53.608;10.004;2022-09-03T15:10:27;29.90;60.80
1578;DHT22;57623;53.608;10.004;2022-09-03T15:13:19;29.20;62.00
1578;DHT22;57623;53.608;10.004;2022-09-03T15:16:17;28.70;61.50
1578;DHT22;57623;53.608;10.004;2022-09-03T15:19:12;28.20;64.00
1578;DHT22;57623;53.608;10.004;2022-09-03T15:22:12;27.70;64.70
1578;DHT22;57623;53.608;10.004;2022-09-03T15:25:12;27.30;64.50
1578;DHT22;57623;53.608;10.004;2022-09-03T15:28:11;26.90;65.90
1578;DHT22;57623;53.608;10.004;2022-09-03T15:31:08;26.60;65.30
1578;DHT22;57623;53.608;10.004;2022-09-03T15:34:02;26.30;65.40
1578;DHT22;57623;53.608;10.004;2022-09-03T15:36:57;26.00;66.30
1578;DHT22;57623;53.608;10.004;2022-09-03T15:39:59;25.70;67.00
1578;DHT22;57623;53.608;10.004;2022-09-03T15:42:54;25.50;67.60
1578;DHT22;57623;53.608;10.004;2022-09-03T15:45:51;25.30;68.00
1578;DHT22;57623;53.608;10.004;2022-09-03T15:48:47;24.90;68.10
1578;DHT22;57623;53.608;10.004;2022-09-03T15:51:56;24.70;69.20
1578;DHT22;57623;53.608;10.004;2022-09-03T15:54:52;24.60;70.00
1578;DHT22;57623;53.608;10.004;2022-09-03T15:57:49;24.50;70.40
1578;DHT22;57623;53.608;10.004;2022-09-03T16:00:50;24.40;69.60
1578;DHT22;57623;53.608;10.004;2022-09-03T16:03:52;24.40;70.60
1578;DHT22;57623;53.608;10.004;2022-09-03T16:06:55;24.30;70.20
1578;DHT22;57623;53.608;10.004;2022-09-03T16:09:50;24.10;70.60
1578;DHT22;57623;53.608;10.004;2022-09-03T16:13:04;24.00;71.50
1578;DHT22;57623;53.608;10.004;2022-09-03T16:15:59;23.90;71.80
1578;DHT22;57623;53.608;10.004;2022-09-03T16:18:56;23.80;72.40
1578;DHT22;57623;53.608;10.004;2022-09-03T16:21:56;23.70;72.70
1578;DHT22;57623;53.608;10.004;2022-09-03T16:24:49;23.60;73.60
1578;DHT22;57623;53.608;10.004;2022-09-03T16:27:44;23.60;74.00
1578;DHT22;57623;53.608;10.004;2022-09-03T16:30:49;23.60;73.20
1578;DHT22;57623;53.608;10.004;2022-09-03T16:33:45;23.40;73.20
1578;DHT22;57623;53.608;10.004;2022-09-03T16:36:43;23.30;74.30
1578;DHT22;57623;53.608;10.004;2022-09-03T16:39:47;23.30;75.30
1578;DHT22;57623;53.608;10.004;2022-09-03T16:42:42;23.30;74.60
1578;DHT22;57623;53.608;10.004;2022-09-03T16:45:38;23.20;75.10
1578;DHT22;57623;53.608;10.004;2022-09-03T16:48:39;23.10;74.20
1578;DHT22;57623;53.608;10.004;2022-09-03T16:51:37;23.10;74.10
1578;DHT22;57623;53.608;10.004;2022-09-03T16:54:42;23.00;74.50
1578;DHT22;57623;53.608;10.004;2022-09-03T16:57:58;23.00;74.70
1578;DHT22;57623;53.608;10.004;2022-09-03T17:01:09;22.90;74.40
1578;DHT22;57623;53.608;10.004;2022-09-03T17:04:25;22.90;75.40
1578;DHT22;57623;53.608;10.004;2022-09-03T17:07:36;22.80;75.20
1578;DHT22;57623;53.608;10.004;2022-09-03T17:10:37;22.60;76.20
1578;DHT22;57623;53.608;10.004;2022-09-03T17:13:44;22.60;77.60
1578;DHT22;57623;53.608;10.004;2022-09-03T17:16:45;22.60;77.80
1578;DHT22;57623;53.608;10.004;2022-09-03T17:19:48;22.50;77.60
1578;DHT22;57623;53.608;10.004;2022-09-03T17:22:44;22.50;77.50
1578;DHT22;57623;53.608;10.004;2022-09-03T17:25:39;22.40;78.30
1578;DHT22;57623;53.608;10.004;2022-09-03T17:28:50;22.30;77.80
1578;DHT22;57623;53.608;10.004;2022-09-03T17:31:47;22.20;78.60
1578;DHT22;57623;53.608;10.004;2022-09-03T17:34:47;22.10;79.00
1578;DHT22;57623;53.608;10.004;2022-09-03T17:37:48;22.00;80.00
1578;DHT22;57623;53.608;10.004;2022-09-03T17:40:46;21.90;80.30
1578;DHT22;57623;53.608;10.004;2022-09-03T17:43:43;21.80;80.30
1578;DHT22;57623;53.608;10.004;2022-09-03T17:46:40;21.70;81.40
1578;DHT22;57623;53.608;10.004;2022-09-03T17:49:41;21.70;81.70
1578;DHT22;57623;53.608;10.004;2022-09-03T17:52:35;21.60;82.20
1578;DHT22;57623;53.608;10.004;2022-09-03T17:55:32;21.60;82.70
1578;DHT22;57623;53.608;10.004;2022-09-03T17:58:30;21.50;82.50
1578;DHT22;57623;53.608;10.004;2022-09-03T18:01:22;21.50;83.00
1578;DHT22;57623;53.608;10.004;2022-09-03T18:04:22;21.40;83.10
1578;DHT22;57623;53.608;10.004;2022-09-03T18:07:22;21.30;83.10
1578;DHT22;57623;53.608;10.004;2022-09-03T18:10:22;21.30;83.40
1578;DHT22;57623;53.608;10.004;2022-09-03T18:13:17;21.20;84.00
1578;DHT22;57623;53.608;10.004;2022-09-03T18:16:14;21.20;84.60
1578;DHT22;57623;53.608;10.004;2022-09-03T18:19:09;21.10;84.90
1578;DHT22;57623;53.608;10.004;2022-09-03T18:22:05;21.00;85.30
1578;DHT22;57623;53.608;10.004;2022-09-03T18:25:13;20.90;85.40
1578;DHT22;57623;53.608;10.004;2022-09-03T18:28:26;20.90;86.00
1578;DHT22;57623;53.608;10.004;2022-09-03T18:31:36;20.80;86.20
1578;DHT22;57623;53.608;10.004;2022-09-03T18:34:42;20.70;86.60
1578;DHT22;57623;53.608;10.004;2022-09-03T18:37:50;20.70;86.80
1578;DHT22;57623;53.608;10.004;2022-09-03T18:41:03;20.60;87.80
1578;DHT22;57623;53.608;10.004;2022-09-03T18:44:19;20.50;88.90